createdAt,value
2023-02-19T00:01:54.477Z,2.03
2023-02-19T00:04:23.809Z,1.67
2023-02-19T00:06:52.660Z,2.15
2023-02-19T00:09:21.742Z,1.92
2023-02-19T00:11:50.506Z,1.90
2023-02-19T00:14:21.696Z,1.85
2023-02-19T00:16:51.047Z,1.67
2023-02-19T00:19:21.900Z,2.20
2023-02-19T00:21:53.030Z,1.42
2023-02-19T00:24:22.979Z,2.33
2023-02-19T00:26:51.240Z,1.83
2023-02-19T00:29:22.698Z,2.33
2023-02-19T00:31:51.974Z,1.98
2023-02-19T00:34:20.224Z,1.83
2023-02-19T00:36:48.790Z,2.28
2023-02-19T00:39:18.687Z,1.85
2023-02-19T00:41:47.557Z,1.83
2023-02-19T00:44:16.097Z,1.90
2023-02-19T00:46:47.726Z,1.80
2023-02-19T00:49:19.834Z,1.85
2023-02-19T00:51:49.514Z,2.60
2023-02-19T00:54:18.481Z,1.83
2023-02-19T00:56:48.030Z,2.10
2023-02-19T00:59:16.326Z,2.45
2023-02-19T01:01:46.573Z,1.83
2023-02-19T01:04:16.441Z,2.13
2023-02-19T01:06:44.833Z,2.25
2023-02-19T01:09:16.088Z,2.42
2023-02-19T01:11:44.913Z,1.80
2023-02-19T01:14:13.112Z,1.90
2023-02-19T01:16:41.781Z,1.80
2023-02-19T01:19:11.722Z,2.10
2023-02-19T01:21:41.909Z,2.33
2023-02-19T01:24:11.382Z,2.63
2023-02-19T01:26:40.487Z,2.47
2023-02-19T01:29:09.501Z,1.70
2023-02-19T01:31:38.234Z,2.03
2023-02-19T01:34:06.606Z,2.45
2023-02-19T01:36:37.351Z,1.98
2023-02-19T01:39:07.532Z,2.20
2023-02-19T01:41:38.939Z,1.90
2023-02-19T01:44:09.350Z,1.92
2023-02-19T01:46:38.889Z,2.22
2023-02-19T01:49:11.850Z,2.33
2023-02-19T01:51:46.082Z,2.17
2023-02-19T01:54:17.381Z,1.88
2023-02-19T01:56:48.793Z,2.35
2023-02-19T01:59:19.284Z,2.30
2023-02-19T02:01:47.729Z,1.60
2023-02-19T02:04:18.283Z,2.60
2023-02-19T02:06:51.306Z,2.35
2023-02-19T02:09:38.746Z,1.98
2023-02-19T02:12:07.740Z,2.15
2023-02-19T02:14:39.141Z,1.65
2023-02-19T02:17:21.588Z,1.35
2023-02-19T02:20:15.345Z,1.50
2023-02-19T02:22:50.662Z,1.20
2023-02-19T02:28:08.091Z,1.42
2023-02-19T02:30:47.340Z,1.00
2023-02-19T02:33:30.767Z,0.75
2023-02-19T02:36:02.268Z,1.30
2023-02-19T02:38:35.185Z,0.80
2023-02-19T02:41:03.994Z,0.65
2023-02-19T02:43:33.400Z,0.60
2023-02-19T02:46:03.145Z,0.90
2023-02-19T02:48:38.448Z,1.48
2023-02-19T02:51:14.205Z,0.82
2023-02-19T02:54:09.754Z,1.13
2023-02-19T02:56:38.760Z,0.50
2023-02-19T02:59:10.160Z,0.40
2023-02-19T03:02:02.435Z,0.40
2023-02-19T03:04:37.326Z,0.80
2023-02-19T03:07:09.142Z,0.90
2023-02-19T03:09:43.416Z,0.50
2023-02-19T03:12:34.259Z,0.40
2023-02-19T03:15:25.116Z,0.55
2023-02-19T03:18:18.118Z,0.22
2023-02-19T03:20:49.678Z,0.30
2023-02-19T03:23:20.797Z,0.20
2023-02-19T03:26:09.471Z,0.32
2023-02-19T03:29:06.871Z,0.20
2023-02-19T03:31:39.111Z,0.35
2023-02-19T03:34:14.439Z,0.28
2023-02-19T03:36:47.060Z,0.22
2023-02-19T03:39:21.110Z,0.20
2023-02-19T03:41:57.033Z,0.25
2023-02-19T03:47:03.777Z,0.10
2023-02-19T03:49:48.626Z,0.30
2023-02-19T03:52:24.930Z,0.22
2023-02-19T03:55:00.015Z,0.20
2023-02-19T03:57:38.076Z,0.35
2023-02-19T04:00:12.816Z,0.35
2023-02-19T04:02:47.076Z,0.40
2023-02-19T04:05:20.028Z,0.47
2023-02-19T04:07:51.068Z,0.75
2023-02-19T04:10:24.915Z,0.25
2023-02-19T04:12:59.136Z,0.57
2023-02-19T04:15:31.386Z,0.57
2023-02-19T04:18:02.862Z,0.50
2023-02-19T04:20:38.181Z,0.50
2023-02-19T04:23:06.732Z,0.63
2023-02-19T04:25:38.670Z,0.98
2023-02-19T04:28:08.637Z,0.73
2023-02-19T04:30:36.986Z,1.10
2023-02-19T04:33:05.543Z,1.40
2023-02-19T04:35:35.156Z,0.80
2023-02-19T04:38:03.461Z,0.60
2023-02-19T04:40:32.299Z,0.60
2023-02-19T04:43:00.546Z,0.60
2023-02-19T04:45:28.748Z,0.20
2023-02-19T04:47:59.214Z,0.20
2023-02-19T04:50:27.541Z,0.20
2023-02-19T04:52:57.153Z,0.17
2023-02-19T04:55:25.439Z,0.08
2023-02-19T04:57:53.703Z,0.10
2023-02-19T05:00:22.708Z,0.00
2023-02-19T05:02:50.933Z,0.00
2023-02-19T05:05:19.571Z,0.13
2023-02-19T05:07:47.820Z,0.10
2023-02-19T05:10:17.920Z,0.10
2023-02-19T05:12:46.174Z,0.10
2023-02-19T05:15:15.240Z,0.08
2023-02-19T05:17:43.515Z,0.17
2023-02-19T05:20:12.545Z,0.25
2023-02-19T05:22:40.738Z,0.22
2023-02-19T05:25:09.196Z,0.60
2023-02-19T05:27:38.852Z,0.47
2023-02-19T05:30:07.830Z,0.40
2023-02-19T05:32:36.796Z,0.60
2023-02-19T05:35:05.786Z,0.73
2023-02-19T05:37:34.007Z,0.60
2023-02-19T05:40:03.220Z,0.65
2023-02-19T05:42:31.445Z,0.65
2023-02-19T05:45:01.130Z,0.88
2023-02-19T05:47:29.308Z,1.05
2023-02-19T05:49:57.542Z,0.45
2023-02-19T05:52:25.911Z,0.63
2023-02-19T05:54:54.076Z,0.60
2023-02-19T05:57:22.361Z,0.50
2023-02-19T05:59:50.928Z,0.82
2023-02-19T06:02:20.588Z,0.85
2023-02-19T06:04:48.831Z,0.80
2023-02-19T06:07:17.005Z,0.63
2023-02-19T06:09:45.321Z,0.77
2023-02-19T06:12:13.551Z,0.38
2023-02-19T06:14:41.803Z,0.50
2023-02-19T06:17:09.978Z,0.75
2023-02-19T06:19:40.480Z,1.00
2023-02-19T06:22:08.903Z,0.70
2023-02-19T06:24:38.237Z,0.80
2023-02-19T06:27:07.022Z,0.77
2023-02-19T06:29:38.206Z,0.45
2023-02-19T06:32:07.451Z,0.65
2023-02-19T06:34:36.296Z,0.50
2023-02-19T06:37:05.996Z,0.50
2023-02-19T06:39:34.266Z,1.05
2023-02-19T06:42:02.816Z,0.93
2023-02-19T06:44:31.135Z,0.65
2023-02-19T06:46:59.353Z,0.43
2023-02-19T06:49:28.062Z,1.00
2023-02-19T06:51:56.273Z,1.27
2023-02-19T06:54:26.953Z,0.80
2023-02-19T06:56:57.162Z,0.70
2023-02-19T06:59:25.488Z,0.65
2023-02-19T07:01:53.962Z,0.80
2023-02-19T07:04:23.073Z,1.00
2023-02-19T07:06:51.316Z,0.90
2023-02-19T07:09:20.193Z,0.70
2023-02-19T07:11:49.918Z,1.00
2023-02-19T07:14:18.696Z,0.43
2023-02-19T07:16:47.894Z,0.68
2023-02-19T07:19:17.222Z,0.60
2023-02-19T07:21:45.556Z,0.95
2023-02-19T07:24:14.231Z,0.80
2023-02-19T07:26:42.507Z,1.40
2023-02-19T07:29:13.019Z,0.95
2023-02-19T07:31:41.260Z,0.80
2023-02-19T07:34:09.485Z,0.75
2023-02-19T07:36:37.706Z,0.85
2023-02-19T07:39:06.797Z,1.25
2023-02-19T07:41:35.720Z,1.17
2023-02-19T07:44:03.927Z,1.35
2023-02-19T07:46:33.542Z,1.10
2023-02-19T07:49:01.968Z,1.63
2023-02-19T07:51:30.244Z,1.30
2023-02-19T07:53:59.050Z,1.70
2023-02-19T07:56:28.812Z,2.00
2023-02-19T07:58:57.444Z,1.65
2023-02-19T08:01:46.268Z,1.70
2023-02-19T08:04:15.320Z,1.25
2023-02-19T08:06:44.280Z,1.35
2023-02-19T08:09:12.817Z,1.45
2023-02-19T08:11:58.512Z,1.75
2023-02-19T08:14:27.480Z,1.08
2023-02-19T08:16:56.200Z,1.20
2023-02-19T08:19:26.439Z,1.45
2023-02-19T08:21:54.797Z,1.35
2023-02-19T08:24:23.277Z,0.80
2023-02-19T08:26:52.026Z,1.10
2023-02-19T08:29:20.683Z,1.35
2023-02-19T08:31:49.187Z,1.33
2023-02-19T08:34:17.539Z,0.95
2023-02-19T08:36:47.109Z,1.00
2023-02-19T08:39:15.398Z,1.20
2023-02-19T08:41:43.640Z,0.90
2023-02-19T08:44:11.998Z,0.63
2023-02-19T08:46:40.293Z,1.00
2023-02-19T08:49:08.579Z,0.65
2023-02-19T08:51:36.807Z,1.13
2023-02-19T08:54:06.643Z,0.80
2023-02-19T08:56:34.835Z,1.08
2023-02-19T08:59:03.055Z,0.60
2023-02-19T09:01:31.279Z,0.57
2023-02-19T09:03:59.567Z,0.43
2023-02-19T09:06:27.825Z,0.50
2023-02-19T09:08:56.164Z,0.38
2023-02-19T09:11:25.813Z,0.43
2023-02-19T09:13:57.517Z,0.52
2023-02-19T09:16:25.829Z,0.85
2023-02-19T09:18:54.045Z,0.60
2023-02-19T09:21:22.654Z,0.65
2023-02-19T09:23:50.926Z,0.65
2023-02-19T09:26:19.465Z,0.52
2023-02-19T09:28:49.028Z,0.60
2023-02-19T09:31:17.683Z,1.00
2023-02-19T09:33:46.704Z,1.30
2023-02-19T09:36:16.469Z,1.20
2023-02-19T09:38:44.872Z,1.73
2023-02-19T09:41:19.426Z,2.08
2023-02-19T09:43:49.074Z,2.08
2023-02-19T09:46:27.483Z,1.23
2023-02-19T09:49:00.118Z,1.08
2023-02-19T09:51:30.216Z,1.02
2023-02-19T09:53:59.114Z,1.67
2023-02-19T09:56:28.415Z,2.13
2023-02-19T09:59:00.644Z,0.80
2023-02-19T10:01:34.354Z,0.57
2023-02-19T10:04:02.695Z,0.47
2023-02-19T10:06:31.243Z,2.35
2023-02-19T10:09:14.446Z,0.95
2023-02-19T10:11:43.416Z,0.93
2023-02-19T10:14:18.734Z,1.40
2023-02-19T10:16:49.328Z,1.33
2023-02-19T10:19:18.259Z,0.98
2023-02-19T10:21:46.708Z,1.33
2023-02-19T10:24:22.211Z,0.88
2023-02-19T10:26:51.762Z,1.05
2023-02-19T10:29:24.631Z,0.63
2023-02-19T10:32:14.525Z,1.55
2023-02-19T10:34:42.795Z,1.00
2023-02-19T10:37:15.039Z,0.65
2023-02-19T10:39:48.399Z,0.98
2023-02-19T10:42:19.926Z,0.50
2023-02-19T10:44:54.610Z,0.90
2023-02-19T10:47:26.715Z,1.00
2023-02-19T10:50:02.100Z,0.88
2023-02-19T10:52:36.297Z,1.17
2023-02-19T10:55:17.956Z,1.73
2023-02-19T10:57:46.967Z,1.00
2023-02-19T11:00:26.848Z,1.40
2023-02-19T11:03:15.247Z,1.48
2023-02-19T11:05:56.140Z,1.20
2023-02-19T11:08:25.889Z,0.80
2023-02-19T11:10:54.255Z,0.95
2023-02-19T11:13:30.476Z,1.13
2023-02-19T11:16:01.101Z,0.60
2023-02-19T11:18:31.934Z,0.98
2023-02-19T11:21:01.954Z,0.70
2023-02-19T11:23:32.278Z,0.90
2023-02-19T11:26:02.754Z,1.02
2023-02-19T11:28:36.908Z,0.98
2023-02-19T11:31:25.871Z,0.38
2023-02-19T11:33:58.303Z,0.75
2023-02-19T11:36:30.528Z,0.50
2023-02-19T11:39:00.469Z,0.82
2023-02-19T11:41:53.616Z,0.98
2023-02-19T11:44:32.846Z,0.70
2023-02-19T11:47:30.564Z,0.60
2023-02-19T11:52:37.539Z,0.93
2023-02-19T11:55:15.013Z,1.13
2023-02-19T11:57:45.207Z,1.00
2023-02-19T12:00:26.206Z,1.75
2023-02-19T12:03:25.531Z,1.33
2023-02-19T12:06:15.770Z,1.27
2023-02-19T12:09:18.759Z,1.83
2023-02-19T12:12:02.348Z,1.67
2023-02-19T12:15:01.471Z,1.08
2023-02-19T12:17:48.723Z,1.15
2023-02-19T12:20:27.888Z,1.38
2023-02-19T12:23:12.675Z,1.77
2023-02-19T12:25:56.958Z,1.25
2023-02-19T12:28:39.121Z,1.50
2023-02-19T12:31:21.264Z,1.17
2023-02-19T12:34:18.590Z,2.20
2023-02-19T12:36:58.943Z,0.82
2023-02-19T12:39:37.836Z,1.65
2023-02-19T12:42:16.659Z,0.70
2023-02-19T12:44:53.090Z,1.00
2023-02-19T12:47:25.053Z,0.65
2023-02-19T12:50:03.521Z,0.60
2023-02-19T12:52:40.356Z,0.77
2023-02-19T12:55:21.719Z,0.70
2023-02-19T12:57:51.824Z,0.93
2023-02-19T13:00:33.527Z,0.68
2023-02-19T13:03:08.320Z,0.85
2023-02-19T13:05:45.855Z,0.60
2023-02-19T13:08:21.835Z,0.77
2023-02-19T13:10:54.861Z,0.70
2023-02-19T13:13:28.692Z,1.27
2023-02-19T13:16:01.367Z,0.40
2023-02-19T13:18:35.611Z,0.20
2023-02-19T13:21:06.269Z,0.47
2023-02-19T13:23:57.059Z,0.55
2023-02-19T13:26:48.663Z,0.30
2023-02-19T13:29:33.402Z,0.45
2023-02-19T13:32:24.023Z,0.30
2023-02-19T13:35:02.947Z,0.30
2023-02-19T13:37:34.844Z,0.93
2023-02-19T13:40:07.965Z,0.60
2023-02-19T13:42:37.740Z,0.28
2023-02-19T13:45:07.706Z,0.30
2023-02-19T13:47:51.067Z,0.43
2023-02-19T13:50:22.253Z,0.50
2023-02-19T13:52:50.836Z,0.20
2023-02-19T13:56:01.867Z,0.73
2023-02-19T13:58:57.941Z,0.50
2023-02-19T14:02:08.808Z,0.57
2023-02-19T14:04:48.561Z,0.60
2023-02-19T14:07:36.886Z,0.47
2023-02-19T14:10:09.764Z,0.55
2023-02-19T14:12:38.892Z,0.50
2023-02-19T14:15:44.949Z,0.50
2023-02-19T14:18:45.338Z,0.50
2023-02-19T14:21:19.373Z,0.22
2023-02-19T14:23:54.035Z,0.60
2023-02-19T14:26:23.955Z,0.65
2023-02-19T14:28:53.976Z,0.70
2023-02-19T14:31:31.904Z,0.68
2023-02-19T14:34:03.394Z,0.40
2023-02-19T14:36:37.243Z,0.40
2023-02-19T14:39:11.675Z,0.50
2023-02-19T14:41:43.323Z,0.65
2023-02-19T14:44:18.217Z,0.45
2023-02-19T14:46:53.046Z,0.28
2023-02-19T14:49:27.021Z,0.85
2023-02-19T14:51:59.400Z,1.33
2023-02-19T14:54:39.076Z,0.80
2023-02-19T14:57:14.864Z,0.57
2023-02-19T14:59:54.364Z,0.47
2023-02-19T15:02:25.969Z,0.43
2023-02-19T15:04:54.777Z,0.38
2023-02-19T15:07:25.830Z,0.57
2023-02-19T15:09:58.619Z,0.50
2023-02-19T15:12:31.303Z,0.55
2023-02-19T15:15:03.536Z,0.30
2023-02-19T15:17:35.429Z,0.40
2023-02-19T15:20:10.867Z,1.05
2023-02-19T15:22:42.436Z,0.57
2023-02-19T15:25:18.813Z,0.50
2023-02-19T15:27:47.216Z,0.45
2023-02-19T15:30:22.960Z,1.23
2023-02-19T15:32:56.512Z,1.15
2023-02-19T15:35:26.353Z,0.88
2023-02-19T15:37:56.158Z,0.77
2023-02-19T15:40:30.933Z,1.08
2023-02-19T15:43:00.225Z,1.40
2023-02-19T15:45:41.963Z,0.38
2023-02-19T15:48:15.895Z,1.15
2023-02-19T15:50:48.716Z,0.85
2023-02-19T15:53:19.756Z,0.93
2023-02-19T15:55:56.930Z,0.80
2023-02-19T15:58:31.617Z,0.50
2023-02-19T16:01:03.763Z,0.52
2023-02-19T16:03:34.011Z,1.00
2023-02-19T16:06:03.888Z,1.15
2023-02-19T16:08:34.025Z,0.63
2023-02-19T16:11:05.278Z,1.27
2023-02-19T16:13:35.601Z,1.35
2023-02-19T16:16:15.331Z,1.02
2023-02-19T16:18:48.661Z,1.20
2023-02-19T16:21:21.430Z,1.13
2023-02-19T16:23:54.621Z,0.65
2023-02-19T16:26:23.859Z,0.85
2023-02-19T16:28:53.254Z,0.68
2023-02-19T16:31:24.074Z,1.13
2023-02-19T16:33:53.810Z,1.23
2023-02-19T16:36:37.924Z,1.55
2023-02-19T16:39:27.022Z,1.02
2023-02-19T16:42:19.900Z,0.57
2023-02-19T16:44:48.986Z,0.90
2023-02-19T16:47:28.096Z,0.90
2023-02-19T16:49:59.926Z,0.88
2023-02-19T16:52:28.673Z,1.52
2023-02-19T16:54:56.854Z,1.08
2023-02-19T16:57:25.293Z,1.00
2023-02-19T16:59:53.531Z,1.75
2023-02-19T17:02:24.749Z,0.88
2023-02-19T17:04:55.271Z,3.00
2023-02-19T17:07:26.076Z,1.95
2023-02-19T17:09:54.317Z,1.35
2023-02-19T17:12:23.268Z,1.08
2023-02-19T17:14:51.565Z,1.35
2023-02-19T17:17:19.930Z,0.60
2023-02-19T17:19:48.417Z,1.13
2023-02-19T17:22:17.781Z,1.30
2023-02-19T17:24:48.313Z,1.10
2023-02-19T17:27:17.231Z,0.85
2023-02-19T17:29:45.426Z,1.30
2023-02-19T17:32:14.566Z,1.60
2023-02-19T17:34:42.959Z,1.85
2023-02-19T17:37:11.189Z,1.23
2023-02-19T17:39:39.524Z,1.48
2023-02-19T17:42:09.763Z,1.10
2023-02-19T17:44:38.047Z,1.77
2023-02-19T17:47:07.454Z,0.80
2023-02-19T17:49:36.370Z,1.00
2023-02-19T17:52:05.111Z,1.10
2023-02-19T17:54:34.340Z,1.10
2023-02-19T17:57:02.562Z,1.90
2023-02-19T17:59:32.134Z,2.00
2023-02-19T18:02:00.324Z,1.48
2023-02-19T18:04:28.573Z,1.48
2023-02-19T18:06:56.736Z,2.00
2023-02-19T18:09:25.004Z,1.55
2023-02-19T18:11:53.186Z,2.42
2023-02-19T18:14:21.428Z,2.88
2023-02-19T18:16:51.350Z,2.75
2023-02-19T18:19:20.154Z,2.47
2023-02-19T18:21:48.346Z,2.38
2023-02-19T18:24:16.789Z,2.00
2023-02-19T18:26:45.082Z,2.42
2023-02-19T18:29:13.563Z,2.10
2023-02-19T18:31:41.924Z,3.38
2023-02-19T18:34:18.331Z,2.60
2023-02-19T18:36:47.100Z,2.40
2023-02-19T18:39:16.236Z,3.03
2023-02-19T18:41:48.912Z,3.15
2023-02-19T18:44:20.161Z,3.10
2023-02-19T18:46:48.551Z,3.67
2023-02-19T18:49:18.888Z,3.40
2023-02-19T18:51:47.686Z,2.55
2023-02-19T18:54:16.149Z,3.33
2023-02-19T18:56:45.748Z,2.95
2023-02-19T18:59:14.922Z,3.17
2023-02-19T19:01:43.349Z,3.15
2023-02-19T19:04:11.897Z,2.80
2023-02-19T19:06:44.077Z,3.10
2023-02-19T19:09:12.418Z,3.05
2023-02-19T19:11:41.372Z,2.53
2023-02-19T19:14:09.828Z,3.50
2023-02-19T19:16:38.065Z,3.10
2023-02-19T19:19:06.662Z,3.20
2023-02-19T19:21:35.100Z,3.38
2023-02-19T19:24:05.969Z,3.00
2023-02-19T19:26:35.098Z,3.67
2023-02-19T19:29:04.422Z,3.70
2023-02-19T19:31:36.858Z,2.88
2023-02-19T19:34:05.397Z,3.58
2023-02-19T19:36:33.688Z,2.97
2023-02-19T19:39:02.621Z,3.28
2023-02-19T19:41:32.637Z,2.50
2023-02-19T19:44:04.304Z,3.72
2023-02-19T19:46:32.799Z,3.65
2023-02-19T19:49:01.391Z,3.58
2023-02-19T19:51:32.868Z,3.50
2023-02-19T19:54:01.961Z,3.30
2023-02-19T19:56:30.206Z,3.35
2023-02-19T19:58:59.847Z,3.47
2023-02-19T20:01:28.146Z,2.63
2023-02-19T20:03:56.390Z,3.20
2023-02-19T20:06:27.186Z,4.10
2023-02-19T20:08:55.901Z,3.72
2023-02-19T20:11:24.301Z,2.80
2023-02-19T20:13:52.559Z,2.83
2023-02-19T20:16:26.932Z,2.58
2023-02-19T20:18:55.736Z,3.17
2023-02-19T20:21:24.043Z,3.20
2023-02-19T20:23:53.799Z,3.30
2023-02-19T20:26:27.328Z,3.42
2023-02-19T20:28:56.211Z,3.40
2023-02-19T20:31:26.500Z,2.55
2023-02-19T20:33:55.477Z,2.38
2023-02-19T20:36:28.354Z,3.42
2023-02-19T20:38:57.088Z,3.33
2023-02-19T20:41:25.326Z,3.05
2023-02-19T20:43:53.626Z,2.88
2023-02-19T20:46:21.945Z,4.18
2023-02-19T20:48:52.076Z,3.55
2023-02-19T20:51:20.306Z,2.42
2023-02-19T20:53:48.949Z,3.63
2023-02-19T20:56:17.179Z,4.00
2023-02-19T20:58:45.444Z,3.63
2023-02-19T21:01:13.682Z,3.55
2023-02-19T21:03:42.022Z,2.53
2023-02-19T21:06:12.017Z,3.03
2023-02-19T21:08:40.472Z,3.42
2023-02-19T21:11:08.673Z,2.50
2023-02-19T21:13:37.327Z,3.55
2023-02-19T21:16:06.098Z,3.53
2023-02-19T21:18:34.765Z,2.58
2023-02-19T21:21:03.167Z,2.35
2023-02-19T21:23:33.296Z,2.95
2023-02-19T21:26:03.976Z,2.78
2023-02-19T21:28:32.196Z,2.22
2023-02-19T21:31:00.673Z,2.53
2023-02-19T21:33:29.219Z,2.25
2023-02-19T21:35:58.204Z,2.33
2023-02-19T21:38:27.182Z,2.35
2023-02-19T21:40:56.843Z,2.05
2023-02-19T21:43:25.104Z,2.10
2023-02-19T21:45:53.319Z,2.55
2023-02-19T21:48:21.622Z,2.22
2023-02-19T21:50:49.957Z,2.58
2023-02-19T21:53:18.950Z,2.25
2023-02-19T21:55:58.010Z,2.67
2023-02-19T21:58:28.705Z,2.60
2023-02-19T22:00:58.103Z,2.45
2023-02-19T22:03:27.026Z,2.67
2023-02-19T22:05:55.464Z,2.47
2023-02-19T22:08:23.697Z,2.13
2023-02-19T22:10:51.954Z,3.08
2023-02-19T22:13:20.211Z,3.15
2023-02-19T22:15:49.774Z,3.08
2023-02-19T22:18:18.054Z,2.20
2023-02-19T22:20:46.365Z,3.05
2023-02-19T22:23:14.931Z,2.90
2023-02-19T22:25:43.191Z,3.20
2023-02-19T22:28:11.529Z,2.33
2023-02-19T22:30:41.003Z,3.17
2023-02-19T22:33:11.054Z,2.63
2023-02-19T22:35:39.306Z,2.42
2023-02-19T22:38:07.603Z,2.80
2023-02-19T22:40:35.826Z,2.50
2023-02-19T22:43:04.055Z,2.95
2023-02-19T22:45:32.373Z,1.95
2023-02-19T22:48:00.595Z,3.10
2023-02-19T22:50:30.594Z,3.22
2023-02-19T22:52:59.209Z,2.88
2023-02-19T22:55:27.482Z,2.83
2023-02-19T22:57:55.688Z,4.15
2023-02-19T23:00:24.545Z,2.97
2023-02-19T23:02:52.754Z,3.08
2023-02-19T23:05:22.598Z,3.80
2023-02-19T23:07:52.225Z,3.58
2023-02-19T23:10:20.394Z,4.35
2023-02-19T23:12:48.613Z,3.92
2023-02-19T23:15:16.849Z,4.35
2023-02-19T23:17:45.121Z,3.97
2023-02-19T23:20:14.052Z,3.47
2023-02-19T23:22:43.693Z,3.60
2023-02-19T23:25:13.326Z,4.03
2023-02-19T23:27:41.536Z,3.15
2023-02-19T23:30:10.492Z,3.97
2023-02-19T23:32:38.759Z,3.63
2023-02-19T23:35:07.521Z,3.30
2023-02-19T23:37:36.220Z,3.67
2023-02-19T23:40:04.951Z,3.03
2023-02-19T23:42:34.556Z,4.65
2023-02-19T23:45:02.894Z,3.55
2023-02-19T23:47:31.887Z,3.92
2023-02-19T23:50:00.198Z,3.78
2023-02-19T23:52:28.860Z,4.32
2023-02-19T23:54:57.591Z,3.65
2023-02-19T23:57:26.326Z,3.15
2023-02-19T23:59:56.111Z,3.60
